createdAt,value
2022-12-29T00:01:27.635Z,50.80
2022-12-29T00:06:30.787Z,51.20
2022-12-29T00:11:36.197Z,51.20
2022-12-29T00:16:39.451Z,51.20
2022-12-29T00:21:59.548Z,51.10
2022-12-29T00:27:29.504Z,51.40
2022-12-29T00:32:49.486Z,51.30
2022-12-29T00:38:10.205Z,51.40
2022-12-29T00:43:31.535Z,51.50
2022-12-29T00:49:03.099Z,51.40
2022-12-29T00:54:05.816Z,51.40
2022-12-29T00:59:10.451Z,51.40
2022-12-29T01:04:13.564Z,51.60
2022-12-29T01:09:34.572Z,51.70
2022-12-29T01:14:39.375Z,51.60
2022-12-29T01:19:42.013Z,51.60
2022-12-29T01:24:44.633Z,51.70
2022-12-29T01:29:48.611Z,51.70
2022-12-29T01:34:51.270Z,51.80
2022-12-29T01:39:53.980Z,51.70
2022-12-29T01:44:59.178Z,51.80
2022-12-29T01:50:04.768Z,51.90
2022-12-29T01:55:08.178Z,52.00
2022-12-29T02:00:14.594Z,51.70
2022-12-29T02:05:20.858Z,51.70
2022-12-29T02:10:25.242Z,51.80
2022-12-29T02:15:36.494Z,51.80
2022-12-29T02:21:06.050Z,51.90
2022-12-29T02:26:23.879Z,52.00
2022-12-29T02:31:31.611Z,52.00
2022-12-29T02:36:39.800Z,52.00
2022-12-29T02:41:46.340Z,52.10
2022-12-29T02:46:56.100Z,51.90
2022-12-29T02:52:01.812Z,52.10
2022-12-29T02:57:04.493Z,52.00
2022-12-29T03:02:21.486Z,52.00
2022-12-29T03:07:26.032Z,51.90
2022-12-29T03:12:49.147Z,51.90
2022-12-29T03:17:56.298Z,52.10
2022-12-29T03:23:01.500Z,52.10
2022-12-29T03:28:05.979Z,51.90
2022-12-29T03:33:12.651Z,52.20
2022-12-29T03:38:16.900Z,52.10
2022-12-29T03:43:21.969Z,52.00
2022-12-29T03:48:25.944Z,51.80
2022-12-29T03:53:28.852Z,51.90
2022-12-29T03:58:31.588Z,52.10
2022-12-29T04:03:35.750Z,52.00
2022-12-29T04:08:38.430Z,52.20
2022-12-29T04:13:41.807Z,52.20
2022-12-29T04:18:45.872Z,52.20
2022-12-29T04:23:48.573Z,52.10
2022-12-29T04:28:51.260Z,52.10
2022-12-29T04:33:55.271Z,52.10
2022-12-29T04:38:58.119Z,52.30
2022-12-29T04:44:00.763Z,52.20
2022-12-29T04:49:09.430Z,52.20
2022-12-29T04:54:12.360Z,51.90
2022-12-29T04:59:14.984Z,52.10
2022-12-29T05:04:18.998Z,52.00
2022-12-29T05:09:21.717Z,52.20
2022-12-29T05:14:24.413Z,52.10
2022-12-29T05:19:28.396Z,52.00
2022-12-29T05:24:31.028Z,52.00
2022-12-29T05:29:33.661Z,52.20
2022-12-29T05:34:37.727Z,52.30
2022-12-29T05:39:40.433Z,52.30
2022-12-29T05:44:43.101Z,52.40
2022-12-29T05:49:47.163Z,52.30
2022-12-29T05:54:49.854Z,52.40
2022-12-29T05:59:52.545Z,52.00
2022-12-29T06:04:56.633Z,52.10
2022-12-29T06:09:59.321Z,52.10
2022-12-29T06:15:02.031Z,52.20
2022-12-29T06:20:06.743Z,52.20
2022-12-29T06:25:09.819Z,52.00
2022-12-29T06:30:13.227Z,52.00
2022-12-29T06:35:17.351Z,52.10
2022-12-29T06:40:20.054Z,52.00
2022-12-29T06:45:22.684Z,52.10
2022-12-29T06:50:26.749Z,52.00
2022-12-29T06:55:29.423Z,52.00
2022-12-29T07:00:32.220Z,52.10
2022-12-29T07:05:36.976Z,52.10
2022-12-29T07:10:39.655Z,51.90
2022-12-29T07:15:42.415Z,52.00
2022-12-29T07:20:46.860Z,51.90
2022-12-29T07:25:49.574Z,51.90
2022-12-29T07:30:52.210Z,52.00
2022-12-29T07:35:56.261Z,52.00
2022-12-29T07:40:59.994Z,52.00
2022-12-29T07:46:02.740Z,52.00
2022-12-29T07:51:07.586Z,51.80
2022-12-29T07:56:10.205Z,52.00
2022-12-29T08:01:12.972Z,52.10
2022-12-29T08:06:17.047Z,52.10
2022-12-29T08:11:19.717Z,52.10
2022-12-29T08:16:22.468Z,52.30
2022-12-29T08:21:26.503Z,52.30
2022-12-29T08:26:29.154Z,52.30
2022-12-29T08:31:31.870Z,52.30
2022-12-29T08:36:35.959Z,52.40
2022-12-29T08:41:38.767Z,52.40
2022-12-29T08:46:41.446Z,52.50
2022-12-29T08:51:45.504Z,52.70
2022-12-29T08:56:48.205Z,52.50
2022-12-29T09:01:51.124Z,52.60
2022-12-29T09:06:56.420Z,52.70
2022-12-29T09:11:59.131Z,52.80
2022-12-29T09:17:19.262Z,52.70
2022-12-29T09:22:23.349Z,52.70
2022-12-29T09:27:26.259Z,52.70
2022-12-29T09:32:33.570Z,52.70
2022-12-29T09:37:38.592Z,52.80
2022-12-29T09:42:43.417Z,52.80
2022-12-29T09:47:46.973Z,52.90
2022-12-29T09:52:52.645Z,53.00
2022-12-29T09:57:56.819Z,52.80
2022-12-29T10:03:01.411Z,52.70
2022-12-29T10:08:15.817Z,52.70
2022-12-29T10:13:38.705Z,52.80
2022-12-29T10:19:02.094Z,52.80
2022-12-29T10:24:08.203Z,52.70
2022-12-29T10:29:15.644Z,52.70
2022-12-29T10:34:21.038Z,52.50
2022-12-29T10:39:27.801Z,52.80
2022-12-29T10:44:32.664Z,52.70
2022-12-29T10:49:39.124Z,52.70
2022-12-29T10:54:46.992Z,52.60
2022-12-29T10:59:49.707Z,52.60
2022-12-29T11:04:57.207Z,52.70
2022-12-29T11:10:14.783Z,52.90
2022-12-29T11:15:19.092Z,52.70
2022-12-29T11:20:29.664Z,52.70
2022-12-29T11:25:32.669Z,52.70
2022-12-29T11:30:37.471Z,52.80
2022-12-29T11:35:42.105Z,52.70
2022-12-29T11:40:44.943Z,52.80
2022-12-29T11:45:49.137Z,52.70
2022-12-29T11:50:53.686Z,52.70
2022-12-29T11:55:57.755Z,52.90
2022-12-29T12:01:03.786Z,52.90
2022-12-29T12:06:08.442Z,52.80
2022-12-29T12:11:13.091Z,52.80
2022-12-29T12:16:18.396Z,52.70
2022-12-29T12:21:23.911Z,52.60
2022-12-29T12:26:32.810Z,52.90
2022-12-29T12:31:43.218Z,52.80
2022-12-29T12:36:51.425Z,52.70
2022-12-29T12:41:59.740Z,52.70
2022-12-29T12:47:18.937Z,52.70
2022-12-29T12:52:30.860Z,52.90
2022-12-29T12:57:39.752Z,52.70
2022-12-29T13:02:52.218Z,52.90
2022-12-29T13:08:06.593Z,53.00
2022-12-29T13:13:29.805Z,52.90
2022-12-29T13:18:36.109Z,52.80
2022-12-29T13:23:41.342Z,52.90
2022-12-29T13:28:50.196Z,52.90
2022-12-29T13:33:58.731Z,52.80
2022-12-29T13:39:04.961Z,52.80
2022-12-29T13:44:08.300Z,52.90
2022-12-29T13:49:14.975Z,53.00
2022-12-29T13:54:25.541Z,53.20
2022-12-29T13:59:36.636Z,53.10
2022-12-29T14:04:56.659Z,53.30
2022-12-29T14:09:59.505Z,53.00
2022-12-29T14:15:22.831Z,53.10
2022-12-29T14:20:26.877Z,53.40
2022-12-29T14:25:47.455Z,53.20
2022-12-29T14:30:52.006Z,53.10
2022-12-29T14:35:56.273Z,53.30
2022-12-29T14:41:20.851Z,53.40
2022-12-29T14:46:24.139Z,53.40
2022-12-29T14:51:32.532Z,53.50
2022-12-29T14:56:35.419Z,53.60
2022-12-29T15:01:40.322Z,53.50
2022-12-29T15:06:45.978Z,53.70
2022-12-29T15:11:50.448Z,53.70
2022-12-29T15:16:53.217Z,53.60
2022-12-29T15:21:58.426Z,53.70
2022-12-29T15:27:05.134Z,53.80
2022-12-29T15:32:22.702Z,53.80
2022-12-29T15:37:28.578Z,53.90
2022-12-29T15:42:47.328Z,54.10
2022-12-29T15:47:51.720Z,54.10
2022-12-29T15:52:55.855Z,54.10
2022-12-29T15:57:59.287Z,54.30
2022-12-29T16:03:03.063Z,54.20
2022-12-29T16:08:22.565Z,54.10
2022-12-29T16:13:27.383Z,54.40
2022-12-29T16:18:31.374Z,54.40
2022-12-29T16:23:38.638Z,54.60
2022-12-29T16:28:45.641Z,54.50
2022-12-29T16:33:49.205Z,54.80
2022-12-29T16:38:53.324Z,54.70
2022-12-29T16:44:10.898Z,54.70
2022-12-29T16:49:23.347Z,54.70
2022-12-29T16:54:30.338Z,54.80
2022-12-29T16:59:34.423Z,54.80
2022-12-29T17:04:37.081Z,55.00
2022-12-29T17:09:41.035Z,55.00
2022-12-29T17:14:45.358Z,55.10
2022-12-29T17:19:49.950Z,55.10
2022-12-29T17:24:54.464Z,55.10
2022-12-29T17:29:58.307Z,55.30
2022-12-29T17:35:01.076Z,55.40
2022-12-29T17:40:06.147Z,55.10
2022-12-29T17:45:14.005Z,55.20
2022-12-29T17:50:17.585Z,55.50
2022-12-29T17:55:22.941Z,55.60
2022-12-29T18:00:27.660Z,55.40
2022-12-29T18:05:30.891Z,55.80
2022-12-29T18:10:35.585Z,55.80
2022-12-29T18:15:38.375Z,55.80
2022-12-29T18:20:41.698Z,56.10
2022-12-29T18:25:47.779Z,55.90
2022-12-29T18:30:50.439Z,55.70
2022-12-29T18:35:54.615Z,56.00
2022-12-29T18:40:59.335Z,55.80
2022-12-29T18:46:02.048Z,55.80
2022-12-29T18:51:04.969Z,55.90
2022-12-29T18:56:09.826Z,55.70
2022-12-29T19:01:18.420Z,56.00
2022-12-29T19:06:21.720Z,56.10
2022-12-29T19:11:26.051Z,56.00
2022-12-29T19:16:28.773Z,56.00
2022-12-29T19:21:31.546Z,55.90
2022-12-29T19:26:36.927Z,55.90
2022-12-29T19:31:39.901Z,55.90
2022-12-29T19:36:42.852Z,55.90
2022-12-29T19:41:46.914Z,56.00
2022-12-29T19:46:49.614Z,55.90
2022-12-29T19:51:52.871Z,55.70
2022-12-29T19:56:56.898Z,55.90
2022-12-29T20:01:59.729Z,55.90
2022-12-29T20:07:02.480Z,55.70
2022-12-29T20:12:06.737Z,55.80
2022-12-29T20:17:12.012Z,55.80
2022-12-29T20:22:14.814Z,55.60
2022-12-29T20:27:18.801Z,55.70
2022-12-29T20:32:22.935Z,55.80
2022-12-29T20:37:25.629Z,55.70
2022-12-29T20:42:29.644Z,55.60
2022-12-29T20:47:32.284Z,55.90
2022-12-29T20:52:34.902Z,55.70
2022-12-29T20:58:21.573Z,55.70
2022-12-29T21:03:01.912Z,55.90
2022-12-29T21:08:05.268Z,55.80
2022-12-29T21:13:09.326Z,55.90
2022-12-29T21:18:12.016Z,55.80
2022-12-29T21:23:14.681Z,55.80
2022-12-29T21:28:18.697Z,56.00
2022-12-29T21:33:22.338Z,55.80
2022-12-29T21:38:25.032Z,55.80
2022-12-29T21:43:29.044Z,55.80
2022-12-29T21:48:31.999Z,55.90
2022-12-29T21:53:41.448Z,56.10
2022-12-29T21:59:03.625Z,55.90
2022-12-29T22:04:23.641Z,55.90
2022-12-29T22:09:44.183Z,56.00
2022-12-29T22:14:48.215Z,55.80
2022-12-29T22:19:50.900Z,55.90
2022-12-29T22:24:53.632Z,56.10
2022-12-29T22:29:57.697Z,56.10
2022-12-29T22:35:05.706Z,56.00
2022-12-29T22:40:11.012Z,56.00
2022-12-29T22:45:15.130Z,56.10
2022-12-29T22:50:17.911Z,56.10
2022-12-29T22:55:20.569Z,56.10
2022-12-29T23:00:25.049Z,56.10
2022-12-29T23:05:27.792Z,56.30
2022-12-29T23:10:30.904Z,56.10
2022-12-29T23:15:34.860Z,56.10
2022-12-29T23:20:37.514Z,56.20
2022-12-29T23:25:40.337Z,56.40
2022-12-29T23:30:44.556Z,55.90
2022-12-29T23:35:47.220Z,56.00
2022-12-29T23:40:49.911Z,56.30
2022-12-29T23:45:53.946Z,56.40
2022-12-29T23:50:56.616Z,56.20
2022-12-29T23:55:59.347Z,56.20
